Time;durP1;ratioP1;P1;durP2;ratioP2;P2;SDS_P1;SDS_P2;PMS_P1;PMS_P2;Temp;Humidity;BMP_temperature;BMP_pressure;BME280_temperature;BME280_humidity;BME280_pressure;Samples;Min_cycle;Max_cycle;Signal;HPM_P1;HPM_P2
2021/08/23 00:01:43;;;;;;;;;7.00;6.33;;;;;22.05;54.07;101715.41;5072545;27;47254;-53
2021/08/23 00:04:09;;;;;;;;;8.00;7.00;;;;;22.09;54.58;101718.84;5078214;27;45472;-53
2021/08/23 00:06:34;;;;;;;;;7.00;7.00;;;;;22.09;54.27;101714.31;5076373;28;45305;-54
2021/08/23 00:09:00;;;;;;;;;5.00;5.00;;;;;22.12;54.46;101708.75;5074634;27;45437;-53
2021/08/23 00:11:25;;;;;;;;;5.00;5.00;;;;;22.16;54.67;101706.75;5068064;28;47631;-54
2021/08/23 00:13:51;;;;;;;;;7.00;6.00;;;;;22.17;54.43;101709.38;5058171;28;45432;-52
2021/08/23 00:16:16;;;;;;;;;5.00;5.00;;;;;22.18;53.83;101707.53;5090742;27;45654;-53
2021/08/23 00:18:43;;;;;;;;;4.33;4.33;;;;;22.20;54.40;101716.44;5058374;28;45266;-55
2021/08/23 00:21:12;;;;;;;;;5.67;5.67;;;;;22.21;54.39;101713.66;5058203;28;47757;-53
2021/08/23 00:23:40;;;;;;;;;6.00;5.00;;;;;22.21;54.39;101715.47;5058015;27;45759;-55
2021/08/23 00:26:06;;;;;;;;;4.33;4.33;;;;;22.22;54.41;101712.69;5058230;28;45460;-53
2021/08/23 00:28:31;;;;;;;;;7.00;7.00;;;;;22.25;54.22;101714.38;5058200;28;45588;-55
2021/08/23 00:30:57;;;;;;;;;5.33;5.00;;;;;22.25;54.26;101712.53;5054365;28;47082;-54
2021/08/23 00:33:22;;;;;;;;;6.67;5.00;;;;;22.27;54.32;101715.16;5052692;28;45275;-51
2021/08/23 00:35:48;;;;;;;;;5.00;5.00;;;;;22.27;53.98;101707.91;5058071;28;45286;-53
2021/08/23 00:38:13;;;;;;;;;5.00;5.00;;;;;22.24;54.14;101708.09;5057949;28;45313;-54
2021/08/23 00:40:39;;;;;;;;;5.67;5.67;;;;;22.22;54.23;101712.69;5051430;28;48677;-54
2021/08/23 00:43:05;;;;;;;;;5.67;5.00;;;;;22.19;53.83;101710.16;5058013;28;45817;-55
2021/08/23 00:45:31;;;;;;;;;4.67;4.67;;;;;22.19;54.03;101707.44;5056669;28;45561;-52
2021/08/23 00:47:58;;;;;;;;;6.67;5.00;;;;;22.19;54.26;101706.56;5057990;28;45562;-54
2021/08/23 00:50:23;;;;;;;;;5.00;5.00;;;;;22.18;54.42;101705.72;5063202;28;47437;-54
2021/08/23 00:52:49;;;;;;;;;6.33;5.33;;;;;22.16;54.49;101706.75;5071027;27;45364;-53
2021/08/23 00:55:15;;;;;;;;;5.00;5.00;;;;;22.17;54.79;101706.66;5071580;28;45274;-53
2021/08/23 00:57:42;;;;;;;;;5.33;5.33;;;;;22.17;54.61;101694.97;5074856;27;45802;-53
2021/08/23 01:00:09;;;;;;;;;4.00;4.00;;;;;22.18;54.49;101696.72;5075322;28;47149;-53
2021/08/23 01:02:38;;;;;;;;;6.00;6.00;;;;;22.18;54.74;101700.31;5072602;27;45763;-51
2021/08/23 01:05:13;;;;;;;;;3.00;3.00;;;;;22.17;55.00;101694.97;5075748;28;45390;-54
2021/08/23 01:07:43;;;;;;;;;5.00;5.00;;;;;22.18;54.42;101699.44;5072338;27;45381;-53
2021/08/23 01:10:15;;;;;;;;;5.00;5.00;;;;;22.18;54.83;101692.19;5068482;28;47285;-52
2021/08/23 01:12:41;;;;;;;;;4.00;4.00;;;;;22.20;54.87;101681.28;5063087;27;45881;-52
2021/08/23 01:15:07;;;;;;;;;4.00;4.00;;;;;22.21;54.81;101689.31;5061254;28;45324;-53
2021/08/23 01:17:33;;;;;;;;;5.00;5.00;;;;;22.21;54.40;101691.13;5064060;28;45844;-53
2021/08/23 01:20:02;;;;;;;;;5.67;5.33;;;;;22.18;55.06;101683.22;5062492;28;48694;-53
2021/08/23 01:22:32;;;;;;;;;6.33;6.00;;;;;22.16;54.64;101688.69;5079223;27;45926;-53
2021/08/23 01:25:04;;;;;;;;;5.00;5.00;;;;;22.11;54.74;101685.38;5062249;28;45289;-53
2021/08/23 01:27:34;;;;;;;;;6.00;6.00;;;;;22.11;54.70;101695.31;5064340;28;45658;-52
2021/08/23 01:30:07;;;;;;;;;5.33;4.33;;;;;22.12;54.98;101686.25;5060863;28;46386;-51
2021/08/23 01:32:34;;;;;;;;;5.00;5.00;;;;;22.10;55.06;101683.59;5061776;28;45904;-51
2021/08/23 01:35:02;;;;;;;;;3.67;3.67;;;;;22.08;55.09;101695.47;5061566;28;45305;-51
2021/08/23 01:37:30;;;;;;;;;5.67;5.00;;;;;22.07;54.98;101696.44;5061960;28;45423;-54
2021/08/23 01:39:55;;;;;;;;;4.00;4.00;;;;;22.06;55.46;101697.38;5054601;28;46326;-54
2021/08/23 01:42:21;;;;;;;;;4.00;4.00;;;;;22.05;55.58;101696.47;5062978;28;45727;-54
2021/08/23 01:44:46;;;;;;;;;4.00;4.00;;;;;22.06;54.94;101700.09;5060631;28;45322;-51
2021/08/23 01:47:12;;;;;;;;;4.00;4.00;;;;;22.04;55.39;101695.59;5060363;28;45504;-54
2021/08/23 01:49:37;;;;;;;;;6.00;6.00;;;;;22.05;55.19;101699.19;5060261;27;47992;-52
2021/08/23 01:52:05;;;;;;;;;6.00;5.00;;;;;22.02;54.98;101697.53;5077641;28;45618;-53
2021/08/23 01:54:31;;;;;;;;;4.67;4.67;;;;;22.00;55.51;101702.16;5079839;27;45405;-53
2021/08/23 01:56:56;;;;;;;;;5.33;4.67;;;;;22.00;55.56;101698.56;5077828;28;45514;-52
2021/08/23 01:59:24;;;;;;;;;5.50;5.50;;;;;21.97;55.38;101694.19;5080094;27;48363;-50
2021/08/23 02:01:50;;;;;;;;;4.00;4.00;;;;;21.97;55.28;101702.28;5074615;27;45442;-52
2021/08/23 02:04:15;;;;;;;;;5.33;5.33;;;;;21.98;55.88;101703.19;5079957;27;45301;-53
2021/08/23 02:06:40;;;;;;;;;4.00;4.00;;;;;21.95;55.82;101695.22;5078918;27;45405;-54
2021/08/23 02:09:07;;;;;;;;;5.00;5.00;;;;;21.93;55.54;101706.13;5076376;27;47226;-49
2021/08/23 02:11:33;;;;;;;;;6.00;5.00;;;;;21.92;56.04;101695.41;5075029;27;45348;-54
2021/08/23 02:13:59;;;;;;;;;3.67;3.67;;;;;21.90;55.60;101706.28;5062944;28;45820;-52
2021/08/23 02:16:24;;;;;;;;;7.67;6.00;;;;;21.93;56.17;101707.94;5070741;28;45274;-53
2021/08/23 02:18:50;;;;;;;;;5.33;5.00;;;;;21.91;55.49;101716.16;5072192;28;46297;-52
2021/08/23 02:21:19;;;;;;;;;6.67;6.00;;;;;21.89;55.80;101707.25;5069886;27;45295;-54
2021/08/23 02:23:46;;;;;;;;;5.00;5.00;;;;;21.88;55.73;101707.34;5072321;28;45648;-52
2021/08/23 02:26:11;;;;;;;;;5.00;5.00;;;;;21.85;55.92;101710.19;5069282;27;45373;-53
2021/08/23 02:28:37;;;;;;;;;6.00;5.00;;;;;21.84;56.16;101709.31;5074022;28;47350;-53
2021/08/23 02:31:04;;;;;;;;;5.00;3.00;;;;;21.82;56.50;101708.50;5061196;27;45707;-54
2021/08/23 02:33:29;;;;;;;;;8.00;6.33;;;;;21.81;55.89;101712.19;5092013;27;45562;-54
2021/08/23 02:35:55;;;;;;;;;5.00;5.00;;;;;21.82;56.43;101711.22;5067198;28;45322;-54
2021/08/23 02:38:20;;;;;;;;;6.00;4.67;;;;;21.81;56.42;101711.31;5073216;28;45407;-54
2021/08/23 02:40:45;;;;;;;;;4.33;4.33;;;;;21.77;56.28;101697.09;5068091;27;45274;-53
2021/08/23 02:43:11;;;;;;;;;4.33;4.33;;;;;21.76;56.19;101703.44;5073212;28;45227;-55
2021/08/23 02:45:36;;;;;;;;;6.00;5.00;;;;;21.76;56.18;101706.16;5067798;28;45631;-55
2021/08/23 02:48:02;;;;;;;;;7.00;7.00;;;;;21.77;56.00;101710.59;5073196;28;47292;-52
2021/08/23 02:50:28;;;;;;;;;5.33;5.33;;;;;21.74;56.16;101706.25;5061043;27;45501;-54
2021/08/23 02:52:53;;;;;;;;;6.33;5.00;;;;;21.73;56.31;101700.91;5071907;28;45394;-54
2021/08/23 02:55:18;;;;;;;;;5.67;5.00;;;;;21.70;56.21;101701.94;5084884;27;45484;-53
2021/08/23 02:57:44;;;;;;;;;8.00;6.33;;;;;21.68;56.32;101701.13;5073086;28;48211;-55
2021/08/23 03:00:10;;;;;;;;;5.00;4.33;;;;;21.67;56.45;101706.63;5068771;28;45501;-54
2021/08/23 03:02:36;;;;;;;;;6.33;6.00;;;;;21.65;56.85;101700.44;5066921;28;45630;-55
2021/08/23 03:05:02;;;;;;;;;4.33;3.67;;;;;21.62;56.99;101695.19;5068277;27;45581;-54
2021/08/23 03:07:27;;;;;;;;;6.67;6.67;;;;;21.61;56.92;101699.72;5071148;28;47240;-55
2021/08/23 03:09:53;;;;;;;;;7.00;7.00;;;;;21.60;56.92;101699.81;5066849;28;45613;-55
2021/08/23 03:12:19;;;;;;;;;4.00;4.00;;;;;21.59;57.25;101704.31;5064393;28;45668;-53
2021/08/23 03:14:44;;;;;;;;;5.00;5.00;;;;;21.60;57.18;101697.13;5063996;28;45429;-54
2021/08/23 03:17:10;;;;;;;;;8.00;7.00;;;;;21.61;57.44;101702.44;5071321;28;48114;-54
2021/08/23 03:19:35;;;;;;;;;4.00;4.00;;;;;21.67;57.42;101706.63;5069176;27;45821;-54
2021/08/23 03:22:01;;;;;;;;;7.00;6.00;;;;;21.70;57.36;101704.63;5071933;28;45423;-54
2021/08/23 03:24:26;;;;;;;;;6.67;5.33;;;;;21.72;57.61;101705.44;5070138;27;45763;-54
2021/08/23 03:26:52;;;;;;;;;14.50;12.00;;;;;21.74;58.08;101708.06;5071767;28;48177;-54
2021/08/23 03:29:17;;;;;;;;;8.67;8.67;;;;;21.73;58.13;101698.22;5069905;27;45276;-54
2021/08/23 03:31:43;;;;;;;;;7.33;7.33;;;;;21.72;58.39;101700.03;5063591;28;45379;-53
2021/08/23 03:34:12;;;;;;;;;8.00;6.00;;;;;21.74;57.95;101702.66;5068518;27;45358;-54
2021/08/23 03:36:42;;;;;;;;;5.67;5.67;;;;;21.74;57.84;101698.13;5071727;28;45425;-55
2021/08/23 03:39:08;;;;;;;;;8.00;6.00;;;;;21.72;58.10;101702.75;5068117;27;45936;-53
2021/08/23 03:41:34;;;;;;;;;6.00;6.00;;;;;21.71;58.34;101708.19;5072847;28;45335;-52
2021/08/23 03:44:00;;;;;;;;;5.00;5.00;;;;;21.69;58.23;101707.41;5068589;28;45578;-52
2021/08/23 03:46:27;;;;;;;;;6.67;6.00;;;;;21.65;57.92;101701.31;5072849;28;48455;-52
2021/08/23 03:48:54;;;;;;;;;7.00;7.00;;;;;21.66;58.21;101704.88;5067923;28;45602;-55
2021/08/23 03:51:19;;;;;;;;;7.33;6.00;;;;;21.64;58.29;101704.09;5064208;28;45666;-55
2021/08/23 03:53:44;;;;;;;;;5.33;5.00;;;;;21.62;58.06;101700.59;5067827;27;45253;-55
2021/08/23 03:56:10;;;;;;;;;8.00;8.00;;;;;21.64;58.41;101702.25;5073593;27;47209;-55
2021/08/23 03:58:35;;;;;;;;;4.67;4.67;;;;;21.65;58.64;101698.59;5067772;27;45436;-56
2021/08/23 04:01:01;;;;;;;;;7.00;6.00;;;;;21.67;58.57;101703.94;5070266;27;45388;-54
2021/08/23 04:03:29;;;;;;;;;5.67;5.67;;;;;21.68;58.37;101702.97;5066923;28;45328;-55
2021/08/23 04:05:54;;;;;;;;;5.00;5.00;;;;;21.71;58.69;101705.50;5073589;28;46700;-54
2021/08/23 04:08:20;;;;;;;;;6.67;6.00;;;;;21.73;58.38;101703.63;5064775;27;45361;-54
2021/08/23 04:10:47;;;;;;;;;6.00;5.00;;;;;21.75;58.22;101701.72;5073536;27;45340;-53
2021/08/23 04:13:13;;;;;;;;;5.00;5.00;;;;;21.78;58.72;101704.25;5061370;27;45544;-53
2021/08/23 04:15:38;;;;;;;;;6.00;4.33;;;;;21.82;58.76;101704.94;5047551;28;47355;-53
2021/08/23 04:18:04;;;;;;;;;5.00;5.00;;;;;21.84;58.25;101705.72;5038149;28;45675;-53
2021/08/23 04:20:29;;;;;;;;;4.33;4.33;;;;;21.85;58.62;101699.38;5038776;28;45282;-51
2021/08/23 04:22:55;;;;;;;;;5.00;5.00;;;;;21.86;58.16;101702.00;5038049;28;45495;-53
2021/08/23 04:25:20;;;;;;;;;6.67;6.67;;;;;21.88;58.44;101700.09;5038272;28;48287;-53
2021/08/23 04:27:46;;;;;;;;;7.00;7.00;;;;;21.91;58.61;101696.34;5038261;28;45299;-53
2021/08/23 04:30:12;;;;;;;;;7.00;7.00;;;;;21.93;58.50;101699.84;5044883;28;45441;-56
2021/08/23 04:32:37;;;;;;;;;5.00;5.00;;;;;21.93;58.05;101700.72;5061363;28;45519;-54
2021/08/23 04:35:03;;;;;;;;;7.00;5.33;;;;;21.92;58.39;101704.38;5061679;27;46975;-56
2021/08/23 04:37:28;;;;;;;;;8.67;7.00;;;;;21.94;57.92;101709.69;5061730;28;45388;-54
2021/08/23 04:39:54;;;;;;;;;5.00;5.00;;;;;21.95;57.96;101706.03;5053471;28;45738;-54
2021/08/23 04:42:19;;;;;;;;;7.00;6.00;;;;;21.92;58.11;101709.78;5058846;28;45562;-54
2021/08/23 04:44:45;;;;;;;;;8.67;7.33;;;;;21.92;58.22;101712.47;5061565;28;46138;-53
2021/08/23 04:47:11;;;;;;;;;6.67;6.67;;;;;21.89;58.38;101712.66;5060045;28;45350;-56
2021/08/23 04:49:37;;;;;;;;;8.00;6.00;;;;;21.85;58.48;101712.88;5061861;28;45455;-54
2021/08/23 04:52:02;;;;;;;;;6.00;5.00;;;;;21.83;58.21;101721.06;5061625;28;45381;-53
2021/08/23 04:54:28;;;;;;;;;9.00;7.67;;;;;21.82;58.96;101716.63;5059796;28;47007;-53
2021/08/23 04:56:53;;;;;;;;;7.67;7.67;;;;;21.81;59.00;101717.56;5061100;28;45526;-54
2021/08/23 04:59:19;;;;;;;;;6.00;6.00;;;;;21.76;58.38;101716.09;5061451;28;45636;-54
2021/08/23 05:01:44;;;;;;;;;8.00;7.00;;;;;21.68;58.31;101725.44;5053148;28;46302;-54
2021/08/23 05:04:10;;;;;;;;;7.00;6.67;;;;;21.64;59.16;101725.72;5056725;28;47364;-54
2021/08/23 05:06:36;;;;;;;;;8.67;7.33;;;;;21.60;59.10;101729.53;5057562;28;45508;-54
2021/08/23 05:09:01;;;;;;;;;9.33;8.33;;;;;21.57;58.78;101735.06;5080853;27;45469;-54
2021/08/23 05:11:28;;;;;;;;;8.33;8.00;;;;;21.51;59.20;101738.09;5059086;28;45485;-54
2021/08/23 05:13:54;;;;;;;;;7.00;7.00;;;;;21.47;58.95;101731.06;5058549;28;47471;-55
2021/08/23 05:16:19;;;;;;;;;9.33;7.67;;;;;21.43;59.23;101733.06;5058538;28;45376;-54
2021/08/23 05:18:44;;;;;;;;;10.75;10.75;;;;;21.38;59.19;101732.44;5062262;28;45436;-54
2021/08/23 05:21:10;;;;;;;;;8.33;8.33;;;;;21.34;59.17;101731.72;5098136;27;45433;-54
2021/08/23 05:23:35;;;;;;;;;10.67;10.33;;;;;21.35;59.59;101740.72;5059824;28;48402;-55
2021/08/23 05:26:05;;;;;;;;;9.33;9.33;;;;;21.35;59.52;101738.88;5060408;28;45448;-55
2021/08/23 05:28:31;;;;;;;;;8.00;8.00;;;;;21.34;59.95;101745.22;5052325;28;45488;-54
2021/08/23 05:30:56;;;;;;;;;10.00;10.00;;;;;21.38;59.96;101743.25;5060039;28;45670;-55
2021/08/23 05:33:22;;;;;;;;;7.00;7.00;;;;;21.39;59.87;101745.88;5059065;28;47247;-54
2021/08/23 05:35:47;;;;;;;;;9.00;8.33;;;;;21.43;59.45;101741.16;5059780;28;45294;-54
2021/08/23 05:38:13;;;;;;;;;11.33;11.33;;;;;21.42;59.92;101747.53;5056097;28;45374;-51
2021/08/23 05:40:38;;;;;;;;;8.00;8.00;;;;;21.38;59.61;101754.03;5053739;28;45422;-56
2021/08/23 05:43:05;;;;;;;;;14.00;12.00;;;;;21.36;59.91;101756.81;5059281;28;47586;-54
2021/08/23 05:45:31;;;;;;;;;10.33;10.00;;;;;21.32;59.62;101749.81;5060082;28;45840;-54
2021/08/23 05:47:56;;;;;;;;;10.00;10.00;;;;;21.34;59.61;101750.63;5064640;28;45651;-55
2021/08/23 05:50:21;;;;;;;;;11.00;9.33;;;;;21.36;59.91;101758.66;5060857;28;45316;-55
2021/08/23 05:52:47;;;;;;;;;15.00;13.50;;;;;21.38;60.11;101757.63;5061466;28;45876;-52
2021/08/23 05:55:13;;;;;;;;;17.00;15.50;;;;;21.41;59.83;101759.28;5042849;28;45230;-51
2021/08/23 05:57:39;;;;;;;;;12.33;11.00;;;;;21.42;60.00;101758.31;5059549;28;45366;-54
2021/08/23 06:00:06;;;;;;;;;12.33;11.67;;;;;21.42;59.96;101753.81;5059810;28;45309;-55
2021/08/23 06:02:32;;;;;;;;;12.00;11.33;;;;;21.42;59.44;101758.31;5060612;28;46690;-54
2021/08/23 06:04:58;;;;;;;;;14.33;14.33;;;;;21.41;59.82;101760.16;5067866;28;45399;-52
2021/08/23 06:07:23;;;;;;;;;12.50;11.75;;;;;21.40;59.68;101773.75;5061943;28;45482;-53
2021/08/23 06:09:48;;;;;;;;;9.33;9.33;;;;;21.37;59.59;101777.47;5059889;28;45828;-51
2021/08/23 06:12:14;;;;;;;;;15.33;14.33;;;;;21.37;60.04;101765.81;5057775;27;47821;-55
2021/08/23 06:14:40;;;;;;;;;12.00;12.00;;;;;21.37;59.52;101772.06;5054379;28;45654;-52
2021/08/23 06:17:07;;;;;;;;;13.50;13.50;;;;;21.40;59.92;101771.91;5045168;28;45416;-54
2021/08/23 06:19:33;;;;;;;;;11.75;10.75;;;;;21.44;60.02;101784.31;5049084;28;45659;-53
2021/08/23 06:21:58;;;;;;;;;13.25;13.25;;;;;21.47;59.24;101783.31;5047357;28;47086;-54
2021/08/23 06:24:24;;;;;;;;;14.25;12.50;;;;;21.51;59.36;101782.19;5045696;28;46145;-54
2021/08/23 06:26:49;;;;;;;;;13.00;12.25;;;;;21.55;59.14;101788.28;5049138;28;45563;-54
2021/08/23 06:29:15;;;;;;;;;14.25;14.25;;;;;21.55;59.37;101783.75;5044879;28;45731;-55
2021/08/23 06:31:41;;;;;;;;;16.50;14.25;;;;;21.57;58.62;101781.84;5044646;28;45890;-51
2021/08/23 06:34:08;;;;;;;;;14.25;13.00;;;;;21.59;59.39;101785.34;5050220;28;45604;-54
2021/08/23 06:36:34;;;;;;;;;15.50;14.25;;;;;21.61;58.82;101780.78;5056430;28;45444;-53
2021/08/23 06:39:00;;;;;;;;;13.00;13.00;;;;;21.65;58.52;101779.66;5055744;28;45898;-54
2021/08/23 06:41:26;;;;;;;;;12.75;12.75;;;;;21.71;58.83;101775.75;5055580;28;47217;-55
2021/08/23 06:43:51;;;;;;;;;15.75;13.75;;;;;21.73;58.32;101780.16;5058644;28;45334;-53
2021/08/23 06:46:17;;;;;;;;;12.00;11.50;;;;;21.77;58.31;101779.97;5053668;28;45536;-54
2021/08/23 06:48:44;;;;;;;;;14.50;12.75;;;;;21.81;58.17;101784.25;5058632;28;45627;-57
2021/08/23 06:51:10;;;;;;;;;11.25;11.25;;;;;21.83;57.96;101785.06;5058262;28;47634;-53
2021/08/23 06:53:35;;;;;;;;;12.50;11.00;;;;;21.87;57.97;101778.56;5056773;28;45520;-53
2021/08/23 06:56:01;;;;;;;;;12.25;10.50;;;;;21.90;57.98;101783.78;5057868;28;45427;-54
2021/08/23 06:58:26;;;;;;;;;12.67;11.67;;;;;21.91;57.72;101778.31;5058082;28;45726;-53
2021/08/23 07:00:52;;;;;;;;;9.00;9.00;;;;;21.94;57.62;101780.84;5054587;28;49319;-51
2021/08/23 07:03:17;;;;;;;;;11.33;11.33;;;;;21.94;57.35;101774.56;5054862;28;45957;-53
2021/08/23 07:05:43;;;;;;;;;11.33;11.33;;;;;21.98;57.69;101776.16;5049212;28;45514;-53
2021/08/23 07:08:08;;;;;;;;;10.00;10.00;;;;;22.03;57.69;101774.09;5050568;28;45476;-53
2021/08/23 07:10:34;;;;;;;;;10.00;10.00;;;;;22.07;57.36;101773.00;5054362;28;46374;-57
2021/08/23 07:13:00;;;;;;;;;12.00;11.00;;;;;22.10;57.22;101775.53;5054101;28;45663;-54
2021/08/23 07:15:26;;;;;;;;;10.67;10.67;;;;;22.12;56.90;101776.34;5057206;28;45265;-53
2021/08/23 07:17:51;;;;;;;;;13.50;13.00;;;;;22.16;57.53;101780.63;5054833;28;45759;-55
2021/08/23 07:20:17;;;;;;;;;11.00;11.00;;;;;22.17;56.79;101778.78;5054919;28;47055;-54
2021/08/23 07:22:42;;;;;;;;;8.67;8.33;;;;;22.19;57.48;101779.56;5055548;28;45294;-53
2021/08/23 07:25:08;;;;;;;;;9.25;9.25;;;;;22.22;56.94;101788.38;5056533;28;45603;-53
2021/08/23 07:27:35;;;;;;;;;8.75;8.00;;;;;22.24;56.56;101788.34;5058697;28;45486;-53
2021/08/23 07:30:01;;;;;;;;;11.00;11.00;;;;;22.28;57.02;101789.91;5054967;28;47314;-53
2021/08/23 07:32:27;;;;;;;;;12.33;10.00;;;;;22.33;56.79;101785.13;5067021;28;45866;-54
2021/08/23 07:34:52;;;;;;;;;10.00;10.00;;;;;22.36;56.15;101781.38;5056005;28;45506;-54
2021/08/23 07:37:18;;;;;;;;;10.33;10.33;;;;;22.39;56.76;101771.28;5053478;28;45572;-53
2021/08/23 07:39:44;;;;;;;;;11.67;11.67;;;;;22.44;56.69;101777.31;5069010;28;47654;-55
2021/08/23 07:42:10;;;;;;;;;12.00;11.00;;;;;22.48;56.46;101780.69;5057875;28;45411;-53
2021/08/23 07:44:35;;;;;;;;;11.00;10.67;;;;;22.50;56.24;101778.81;5058308;28;45357;-54
2021/08/23 07:47:01;;;;;;;;;13.00;11.00;;;;;22.54;55.95;101780.38;5054743;28;45569;-54
2021/08/23 07:49:27;;;;;;;;;12.00;12.00;;;;;22.58;56.39;101782.81;5054879;28;47351;-53
2021/08/23 07:51:52;;;;;;;;;11.00;10.00;;;;;22.63;55.79;101788.00;5058251;28;45710;-52
2021/08/23 07:54:18;;;;;;;;;16.33;14.00;;;;;22.64;55.92;101789.75;5057442;28;46234;-55
2021/08/23 07:56:45;;;;;;;;;9.33;9.00;;;;;22.66;55.70;101790.53;5058151;28;45506;-53
2021/08/23 07:59:10;;;;;;;;;10.75;10.25;;;;;22.67;55.72;101786.00;5057991;28;47259;-54
2021/08/23 08:01:36;;;;;;;;;12.50;11.00;;;;;22.69;55.62;101789.47;5057506;28;46206;-54
2021/08/23 08:04:01;;;;;;;;;13.00;11.67;;;;;22.70;55.52;101794.81;5056461;28;45315;-53
2021/08/23 08:06:27;;;;;;;;;11.67;11.67;;;;;22.65;55.81;101785.22;5063963;28;45456;-53
2021/08/23 08:08:52;;;;;;;;;11.00;11.00;;;;;22.63;55.36;101789.84;5064102;28;45770;-53
2021/08/23 08:11:19;;;;;;;;;12.67;12.67;;;;;22.63;55.31;101787.13;5064452;27;45544;-53
2021/08/23 08:13:44;;;;;;;;;10.50;10.50;;;;;22.62;55.44;101788.97;5068074;28;45452;-55
2021/08/23 08:16:10;;;;;;;;;12.00;12.00;;;;;22.65;55.48;101791.50;5058009;28;45427;-52
2021/08/23 08:18:35;;;;;;;;;12.00;11.33;;;;;22.69;55.41;101794.91;5060689;28;47229;-54
2021/08/23 08:21:01;;;;;;;;;12.67;11.67;;;;;22.74;55.34;101793.69;5063414;28;45471;-54
2021/08/23 08:23:27;;;;;;;;;11.67;11.67;;;;;22.76;55.12;101790.91;5059859;28;45374;-53
2021/08/23 08:25:52;;;;;;;;;12.00;11.67;;;;;22.75;55.34;101795.44;5062712;27;45593;-54
2021/08/23 08:28:17;;;;;;;;;9.67;8.67;;;;;22.76;54.91;101799.91;5058106;28;47681;-54
2021/08/23 08:30:43;;;;;;;;;11.00;11.00;;;;;22.80;55.19;101781.66;5068991;27;45315;-54
2021/08/23 08:33:08;;;;;;;;;12.67;11.00;;;;;22.79;54.90;101786.19;5061013;28;45458;-55
2021/08/23 08:35:34;;;;;;;;;12.67;11.67;;;;;22.81;54.94;101786.09;5061304;27;45614;-55
2021/08/23 08:37:59;;;;;;;;;12.67;11.00;;;;;22.89;55.17;101783.88;5069698;27;47964;-53
2021/08/23 08:40:25;;;;;;;;;10.67;10.67;;;;;23.02;55.08;101767.81;5063039;28;45421;-55
2021/08/23 08:42:51;;;;;;;;;11.67;10.67;;;;;23.13;54.69;101778.91;5063935;28;45454;-52
2021/08/23 08:45:17;;;;;;;;;9.33;9.33;;;;;23.20;54.76;101775.75;5060129;28;45471;-53
2021/08/23 08:47:44;;;;;;;;;10.33;10.33;;;;;23.23;54.17;101774.69;5061375;28;47102;-53
2021/08/23 08:50:14;;;;;;;;;12.00;12.00;;;;;23.25;54.19;101775.50;5062260;27;45397;-53
2021/08/23 08:52:42;;;;;;;;;9.67;9.67;;;;;23.30;54.12;101778.78;5059097;28;45392;-58
2021/08/23 08:55:08;;;;;;;;;11.33;10.00;;;;;23.39;53.91;101780.09;5061812;28;45441;-54
2021/08/23 08:57:33;;;;;;;;;9.67;9.67;;;;;23.49;54.15;101779.44;5062653;28;47001;-54
2021/08/23 08:59:59;;;;;;;;;17.25;16.50;;;;;23.63;53.86;101784.13;5044454;28;45534;-54
2021/08/23 09:02:24;;;;;;;;;11.33;11.00;;;;;23.74;53.82;101784.31;5058369;28;45876;-54
2021/08/23 09:04:50;;;;;;;;;11.33;10.00;;;;;23.79;53.37;101792.19;5058738;28;45518;-54
2021/08/23 09:07:15;;;;;;;;;11.67;9.33;;;;;23.77;53.26;101792.28;5061630;28;48284;-55
2021/08/23 09:09:41;;;;;;;;;10.25;10.25;;;;;23.77;53.18;101786.88;5064007;28;45341;-54
2021/08/23 09:12:11;;;;;;;;;10.67;10.00;;;;;23.79;53.29;101797.63;5055480;28;45325;-54
2021/08/23 09:14:47;;;;;;;;;9.75;9.75;;;;;23.82;53.18;101794.72;5061886;27;45436;-54
2021/08/23 09:17:13;;;;;;;;;12.00;11.00;;;;;23.82;52.90;101799.28;5060483;28;47279;-55
2021/08/23 09:19:40;;;;;;;;;9.67;9.67;;;;;23.76;52.88;101803.22;5062676;28;45690;-53
2021/08/23 09:22:09;;;;;;;;;9.67;9.67;;;;;23.71;52.80;101795.34;5060280;28;45646;-52
2021/08/23 09:24:37;;;;;;;;;11.33;11.33;;;;;23.67;52.89;101799.22;5066961;28;45789;-54
2021/08/23 09:27:08;;;;;;;;;10.00;10.00;;;;;23.73;53.04;101798.84;5059071;28;47303;-50
2021/08/23 09:29:59;;;;;;;;;11.00;10.00;;;;;23.83;52.83;101803.72;5055202;27;45416;-55
2021/08/23 09:32:45;;;;;;;;;11.00;11.00;;;;;23.88;52.94;101798.88;5059682;28;45504;-54
2021/08/23 09:35:10;;;;;;;;;13.00;11.67;;;;;23.89;52.81;101800.66;5054727;28;45399;-54
2021/08/23 09:37:36;;;;;;;;;12.00;12.00;;;;;23.85;52.77;101799.94;5058750;27;47152;-53
2021/08/23 09:40:12;;;;;;;;;8.00;8.00;;;;;23.77;52.86;101794.13;5055754;28;45421;-55
2021/08/23 09:42:38;;;;;;;;;10.25;10.25;;;;;23.76;52.90;101804.09;5057516;28;45639;-55
2021/08/23 09:45:24;;;;;;;;;10.67;10.33;;;;;23.77;52.96;101796.84;5059190;28;45612;-55
2021/08/23 09:48:05;;;;;;;;;10.00;10.00;;;;;23.80;52.66;101795.78;5058916;27;47261;-55
2021/08/23 09:50:57;;;;;;;;;10.00;8.50;;;;;23.81;52.96;101798.41;5057795;28;45408;-54
2021/08/23 09:53:22;;;;;;;;;10.50;10.50;;;;;23.86;52.91;101803.53;5054341;28;45443;-55
2021/08/23 09:55:52;;;;;;;;;11.00;9.75;;;;;23.91;52.87;101801.44;5059220;28;45400;-53
2021/08/23 09:58:18;;;;;;;;;8.75;8.00;;;;;23.96;52.58;101805.59;5059724;27;47167;-55
2021/08/23 10:00:44;;;;;;;;;11.00;9.50;;;;;23.97;52.54;101801.91;5059696;28;46028;-54
2021/08/23 10:03:15;;;;;;;;;10.00;8.00;;;;;24.00;52.62;101811.69;5052646;28;45586;-54
2021/08/23 10:05:47;;;;;;;;;8.00;8.00;;;;;23.96;52.85;101805.59;5060029;28;45612;-53
2021/08/23 10:08:24;;;;;;;;;12.00;12.00;;;;;24.02;52.81;101804.38;5051414;28;45486;-53
2021/08/23 10:10:52;;;;;;;;;11.67;9.00;;;;;24.12;52.61;101808.25;5053464;28;45663;-52
2021/08/23 10:13:18;;;;;;;;;10.75;10.75;;;;;24.16;52.35;101814.38;5057733;28;45392;-55
2021/08/23 10:15:44;;;;;;;;;8.00;8.00;;;;;24.12;52.14;101801.94;5046909;28;45623;-55
2021/08/23 10:18:10;;;;;;;;;8.00;8.00;;;;;24.06;52.25;101800.50;5056688;28;46614;-54
2021/08/23 10:20:37;;;;;;;;;7.00;7.00;;;;;24.07;52.25;101800.41;5059874;28;45491;-55
2021/08/23 10:23:03;;;;;;;;;10.00;10.00;;;;;24.05;52.35;101799.63;5060147;27;45493;-53
2021/08/23 10:25:30;;;;;;;;;9.00;7.50;;;;;24.02;52.65;101809.78;5061022;28;45656;-52
2021/08/23 10:28:18;;;;;;;;;8.33;8.00;;;;;24.01;52.66;101806.22;5059561;28;48480;-54
2021/08/23 10:30:44;;;;;;;;;9.00;7.33;;;;;24.05;52.69;101802.34;5074292;28;46068;-55
2021/08/23 10:33:16;;;;;;;;;7.67;7.33;;;;;24.08;52.21;101812.13;5063640;28;45564;-53
2021/08/23 10:35:52;;;;;;;;;7.75;7.75;;;;;23.97;52.76;101803.75;5057482;28;45466;-54
2021/08/23 10:38:23;;;;;;;;;9.33;8.67;;;;;23.90;52.90;101805.97;5069899;28;47351;-55
2021/08/23 10:40:53;;;;;;;;;9.67;8.00;;;;;23.78;52.99;101799.47;5058348;28;45380;-54
2021/08/23 10:43:23;;;;;;;;;8.33;8.33;;;;;23.68;53.10;101809.09;5052167;28;45443;-54
2021/08/23 10:45:50;;;;;;;;;6.67;6.67;;;;;23.61;53.34;101802.28;5057757;28;45745;-53
2021/08/23 10:48:20;;;;;;;;;9.00;8.33;;;;;23.55;53.45;101801.75;5057525;28;47318;-55
2021/08/23 10:51:03;;;;;;;;;7.33;7.33;;;;;23.50;53.75;101810.13;5059627;28;45476;-54
2021/08/23 10:53:38;;;;;;;;;8.50;8.50;;;;;23.52;53.95;101807.34;5057122;28;45460;-54
2021/08/23 10:56:12;;;;;;;;;9.00;8.00;;;;;23.52;53.61;101802.81;5062057;28;45443;-53
2021/08/23 10:58:38;;;;;;;;;9.00;8.00;;;;;23.49;53.93;101803.84;5052716;28;48293;-54
2021/08/23 11:01:14;;;;;;;;;8.75;7.50;;;;;23.47;54.02;101804.91;5072142;28;45380;-54
2021/08/23 11:03:40;;;;;;;;;10.25;10.25;;;;;23.44;54.10;101802.38;5057247;28;45486;-54
2021/08/23 11:06:06;;;;;;;;;9.25;9.25;;;;;23.47;54.00;101802.19;5058679;28;45507;-54
2021/08/23 11:08:32;;;;;;;;;9.00;9.00;;;;;23.55;54.73;101791.78;5085257;27;46936;-54
2021/08/23 11:11:11;;;;;;;;;9.50;9.50;;;;;23.66;54.22;101797.47;5057707;28;45379;-56
2021/08/23 11:13:43;;;;;;;;;8.00;8.00;;;;;23.81;53.76;101794.81;5081023;27;45364;-54
2021/08/23 11:16:09;;;;;;;;;8.67;6.67;;;;;23.90;53.92;101795.13;5059135;28;45648;-54
2021/08/23 11:18:42;;;;;;;;;10.33;10.33;;;;;24.00;53.52;101785.44;5070748;28;47334;-55